CheckWX is a tool to help pilots better visualize weather data.  It is not intended as a substitute for an official pre-flight weather briefing.

05:20:31 UTC

HTIR METAR
Iringa Airport
Nduli, Tanzania
Current

1 hour ago

HTIR 200400Z 00000KT 9999 BKN018 18/17 Q1016
Observed
Feb-20 @ 04:00 UTC
Visibility
10,000+ meters
Flight Rules
MVFR
Cloud Levels
  • Broken at 1,800' AGL
Temperature
18°C / 64°F
Dewpoint
17°C / 63°F
Humidity
94%
Altimeter
30" Hg
Pressure
1015.92 hPa
Previous

2 hours ago

HTIR 200300Z 00000KT 9999 BKN018 18/17 Q1017
Observed
Feb-20 @ 03:00 UTC
Visibility
10,000+ meters
Flight Rules
MVFR
Cloud Levels
  • Broken at 1,800' AGL
Temperature
18°C / 64°F
Dewpoint
17°C / 63°F
Humidity
94%
Altimeter
30.03" Hg
Pressure
1016.92 hPa
Previous

3 hours ago

HTIR 200200Z 00000KT 9999 BKN018 18/16 Q1017
Observed
Feb-20 @ 02:00 UTC
Visibility
10,000+ meters
Flight Rules
MVFR
Cloud Levels
  • Broken at 1,800' AGL
Temperature
18°C / 64°F
Dewpoint
16°C / 61°F
Humidity
88%
Altimeter
30.03" Hg
Pressure
1016.92 hPa